Time;durP1;ratioP1;P1;durP2;ratioP2;P2;SDS_P1;SDS_P2;PMS_P1;PMS_P2;Temp;Humidity;BMP_temperature;BMP_pressure;BME280_temperature;BME280_humidity;BME280_pressure;Samples;Min_cycle;Max_cycle;Signal;HPM_P1;HPM_P2
2020/12/10 00:01:35;;;;;;;3.00;1.53;;;2.80;99.90;;;;;;5024801;28;20498;-63
2020/12/10 00:04:00;;;;;;;9.73;5.80;;;2.90;99.90;;;;;;5030376;28;20186;-64
2020/12/10 00:06:26;;;;;;;8.30;4.53;;;2.90;99.90;;;;;;5022519;28;20186;-63
2020/12/10 00:08:51;;;;;;;5.37;2.53;;;2.80;99.90;;;;;;5029933;28;20221;-63
2020/12/10 00:11:17;;;;;;;6.70;3.70;;;2.70;99.90;;;;;;5031154;28;20649;-63
2020/12/10 00:13:42;;;;;;;5.27;3.27;;;2.70;99.90;;;;;;5027972;28;20201;-63
2020/12/10 00:16:11;;;;;;;1.70;0.20;;;2.70;99.90;;;;;;5027556;28;20257;-64
2020/12/10 00:18:37;;;;;;;2.00;0.73;;;2.70;99.90;;;;;;5027739;28;20300;-62
2020/12/10 00:21:03;;;;;;;3.08;2.55;;;2.70;99.90;;;;;;5030566;28;20529;-64
2020/12/10 00:23:28;;;;;;;1.70;0.20;;;2.70;99.90;;;;;;5032222;28;20189;-63
2020/12/10 00:25:54;;;;;;;2.10;0.83;;;2.70;99.90;;;;;;5030950;28;20206;-63
2020/12/10 00:28:20;;;;;;;7.53;3.83;;;2.80;99.90;;;;;;5025119;28;20336;-63
2020/12/10 00:30:45;;;;;;;2.47;0.97;;;2.90;99.90;;;;;;5030268;28;20217;-63
2020/12/10 00:33:10;;;;;;;1.70;0.20;;;2.80;99.90;;;;;;5032483;28;20214;-67
2020/12/10 00:35:36;;;;;;;3.50;1.90;;;2.90;99.90;;;;;;5037299;28;20245;-64
2020/12/10 00:38:01;;;;;;;2.53;2.10;;;2.90;99.90;;;;;;5045916;28;20206;-64
2020/12/10 00:40:27;;;;;;;1.70;0.20;;;2.90;99.90;;;;;;5050956;28;20196;-62
2020/12/10 00:42:53;;;;;;;7.87;6.40;;;2.90;99.90;;;;;;5032270;28;20190;-63
2020/12/10 00:45:18;;;;;;;2.37;0.73;;;2.80;99.90;;;;;;5031719;28;20268;-64
2020/12/10 00:47:43;;;;;;;1.70;0.20;;;2.80;99.90;;;;;;5037081;28;20222;-63
2020/12/10 00:50:09;;;;;;;1.70;0.20;;;2.90;99.90;;;;;;5034031;28;20240;-63
2020/12/10 00:52:35;;;;;;;4.07;2.67;;;2.80;99.90;;;;;;5034914;28;20220;-64
2020/12/10 00:55:00;;;;;;;11.00;5.83;;;2.90;99.90;;;;;;5033536;28;20224;-64
2020/12/10 00:57:26;;;;;;;6.97;4.33;;;2.90;99.90;;;;;;5033544;28;20273;-64
2020/12/10 00:59:51;;;;;;;1.80;0.50;;;2.90;99.90;;;;;;5034334;28;20197;-62
2020/12/10 01:02:17;;;;;;;4.53;2.10;;;2.90;99.90;;;;;;5027182;28;20666;-62
2020/12/10 01:04:42;;;;;;;2.60;0.57;;;2.90;99.90;;;;;;5028223;28;20185;-64
2020/12/10 01:07:08;;;;;;;1.70;0.20;;;2.80;99.90;;;;;;5031365;28;20669;-64
2020/12/10 01:09:33;;;;;;;2.77;1.37;;;2.90;99.90;;;;;;5030793;28;20190;-64
2020/12/10 01:12:03;;;;;;;2.23;1.33;;;2.90;99.90;;;;;;5032509;28;20201;-65
2020/12/10 01:14:28;;;;;;;3.38;1.95;;;2.80;99.90;;;;;;5033478;28;20190;-63
2020/12/10 01:16:54;;;;;;;1.70;0.20;;;2.90;99.90;;;;;;5028352;28;20184;-63
2020/12/10 01:19:19;;;;;;;2.43;1.20;;;3.00;99.90;;;;;;5031379;28;20190;-63
2020/12/10 01:21:45;;;;;;;9.70;4.47;;;3.00;99.90;;;;;;5031330;28;20328;-62
2020/12/10 01:24:11;;;;;;;2.60;0.80;;;3.00;99.90;;;;;;5030401;28;20269;-64
2020/12/10 01:26:37;;;;;;;2.10;0.95;;;2.90;99.90;;;;;;5041558;28;20205;-66
2020/12/10 01:29:04;;;;;;;1.70;0.20;;;2.90;99.90;;;;;;5050196;28;20210;-63
2020/12/10 01:31:30;;;;;;;1.70;0.20;;;3.00;99.90;;;;;;5046927;28;20207;-62
2020/12/10 01:33:56;;;;;;;1.90;0.40;;;3.00;99.90;;;;;;5050425;28;20189;-63
2020/12/10 01:36:23;;;;;;;9.60;5.73;;;3.10;99.90;;;;;;5036446;28;20190;-64
2020/12/10 01:38:50;;;;;;;3.88;1.80;;;3.00;99.90;;;;;;5033007;28;20461;-64
2020/12/10 01:41:16;;;;;;;1.92;0.63;;;2.80;99.90;;;;;;5035852;28;20241;-64
2020/12/10 01:43:41;;;;;;;7.55;4.22;;;2.80;99.90;;;;;;5026694;28;20193;-63
2020/12/10 01:46:07;;;;;;;3.30;1.77;;;2.80;99.90;;;;;;5033482;28;20181;-63
2020/12/10 01:48:34;;;;;;;1.70;0.20;;;2.80;99.90;;;;;;5033508;28;20214;-63
2020/12/10 01:51:00;;;;;;;6.63;4.53;;;2.80;99.90;;;;;;5032803;28;20440;-63
2020/12/10 01:53:25;;;;;;;6.27;4.10;;;2.90;99.90;;;;;;5032301;28;20271;-63
2020/12/10 01:55:51;;;;;;;6.53;1.30;;;2.90;99.90;;;;;;5033118;28;20448;-63
2020/12/10 01:58:17;;;;;;;2.07;0.93;;;2.90;99.90;;;;;;5027359;28;20214;-63
2020/12/10 02:00:42;;;;;;;2.53;2.10;;;2.80;99.90;;;;;;5025856;28;20178;-64
2020/12/10 02:03:08;;;;;;;3.00;1.53;;;2.80;99.90;;;;;;5031746;28;20664;-64
2020/12/10 02:05:44;;;;;;;1.80;0.30;;;2.80;99.90;;;;;;5031373;28;20221;-63
2020/12/10 02:08:10;;;;;;;3.55;1.95;;;2.80;99.90;;;;;;5033682;28;20205;-63
2020/12/10 02:10:36;;;;;;;1.70;0.20;;;2.90;99.90;;;;;;5028216;28;20545;-63
2020/12/10 02:13:02;;;;;;;1.70;0.20;;;2.90;99.90;;;;;;5024600;28;20267;-63
2020/12/10 02:15:27;;;;;;;6.35;1.83;;;3.00;99.90;;;;;;5032789;28;20648;-62
2020/12/10 02:17:54;;;;;;;3.90;2.10;;;3.00;99.90;;;;;;5029036;28;20262;-62
2020/12/10 02:20:21;;;;;;;2.17;1.42;;;2.90;99.90;;;;;;5033352;28;20214;-64
2020/12/10 02:22:50;;;;;;;7.65;4.88;;;3.00;99.90;;;;;;5034341;28;20240;-65
2020/12/10 02:25:16;;;;;;;2.53;1.38;;;2.90;99.90;;;;;;5029925;28;20186;-65
2020/12/10 02:27:43;;;;;;;3.17;1.57;;;2.80;99.90;;;;;;5033562;28;20201;-63
2020/12/10 02:30:09;;;;;;;4.30;1.15;;;2.80;99.90;;;;;;5033573;28;20197;-64
2020/12/10 02:32:34;;;;;;;2.33;0.73;;;2.80;99.90;;;;;;5032492;28;20672;-63
2020/12/10 02:35:00;;;;;;;1.80;0.57;;;2.90;99.90;;;;;;5033292;28;20193;-63
2020/12/10 02:37:25;;;;;;;1.80;0.50;;;2.90;99.90;;;;;;5033808;28;20206;-63
2020/12/10 02:39:51;;;;;;;3.40;1.70;;;2.90;99.90;;;;;;5029270;28;20185;-63
2020/12/10 02:42:16;;;;;;;1.70;0.20;;;2.90;99.90;;;;;;5035862;28;20186;-62
2020/12/10 02:44:42;;;;;;;1.80;0.50;;;2.90;99.90;;;;;;5028085;28;20221;-64
2020/12/10 02:47:07;;;;;;;1.90;0.67;;;2.80;99.90;;;;;;5033793;28;20214;-63
2020/12/10 02:49:32;;;;;;;1.70;0.20;;;2.80;99.90;;;;;;5041656;28;20657;-63
2020/12/10 02:51:58;;;;;;;1.70;0.20;;;2.90;99.90;;;;;;5045029;28;20206;-63
2020/12/10 02:54:23;;;;;;;1.70;0.20;;;3.00;99.90;;;;;;5039349;28;20194;-62
2020/12/10 02:56:49;;;;;;;2.80;1.53;;;3.00;99.90;;;;;;5039572;28;20248;-64
2020/12/10 02:59:14;;;;;;;3.40;2.23;;;2.90;99.90;;;;;;5028010;28;20190;-63
2020/12/10 03:01:40;;;;;;;2.03;0.93;;;2.80;99.90;;;;;;5030004;28;20229;-63
2020/12/10 03:04:05;;;;;;;1.80;0.40;;;2.80;99.90;;;;;;5033183;28;20653;-64
2020/12/10 03:06:31;;;;;;;7.37;3.93;;;2.80;99.90;;;;;;5030698;28;20192;-64
2020/12/10 03:08:57;;;;;;;1.80;0.40;;;2.90;99.90;;;;;;5034919;28;20240;-64
2020/12/10 03:11:23;;;;;;;1.70;0.20;;;2.80;99.90;;;;;;5034400;28;20206;-63
2020/12/10 03:13:48;;;;;;;2.17;1.37;;;2.90;99.90;;;;;;5033599;28;20186;-63
2020/12/10 03:16:14;;;;;;;1.70;0.20;;;2.90;99.90;;;;;;5037874;28;20201;-63
2020/12/10 03:18:39;;;;;;;1.70;0.20;;;2.90;99.90;;;;;;5036342;28;20716;-64
2020/12/10 03:21:05;;;;;;;1.70;0.20;;;3.10;99.90;;;;;;5040961;28;20197;-63
2020/12/10 03:23:30;;;;;;;1.70;0.20;;;3.20;99.90;;;;;;5041365;28;20265;-63
2020/12/10 03:25:56;;;;;;;1.70;0.20;;;3.20;99.90;;;;;;5030409;28;20217;-63
2020/12/10 03:28:21;;;;;;;1.70;0.20;;;3.20;99.90;;;;;;5029024;28;20205;-66
2020/12/10 03:30:47;;;;;;;1.70;0.20;;;3.20;99.90;;;;;;5031994;28;20196;-63
2020/12/10 03:33:12;;;;;;;1.70;0.20;;;3.30;99.90;;;;;;5025152;28;20231;-63
2020/12/10 03:35:38;;;;;;;1.70;0.20;;;3.30;99.90;;;;;;5028337;28;20213;-63
2020/12/10 03:38:03;;;;;;;3.60;2.30;;;3.40;99.90;;;;;;5031094;28;20281;-64
2020/12/10 03:40:29;;;;;;;2.30;1.27;;;3.30;99.90;;;;;;5028079;28;20194;-64
2020/12/10 03:42:55;;;;;;;1.70;0.20;;;3.20;99.90;;;;;;5030723;28;20684;-63
2020/12/10 03:45:20;;;;;;;1.70;0.30;;;3.10;99.90;;;;;;5029020;28;20208;-63
2020/12/10 03:47:46;;;;;;;1.70;0.27;;;3.10;99.90;;;;;;5028367;28;20213;-63
2020/12/10 03:50:11;;;;;;;1.77;0.20;;;3.10;99.90;;;;;;5030802;28;20193;-64
2020/12/10 03:52:37;;;;;;;1.70;0.20;;;3.20;99.90;;;;;;5031164;28;20556;-62
2020/12/10 03:55:02;;;;;;;3.87;2.13;;;3.30;99.90;;;;;;5028135;28;20197;-64
2020/12/10 03:57:28;;;;;;;4.30;2.90;;;3.30;99.90;;;;;;5028727;28;20684;-63
2020/12/10 04:02:21;;;;;;;2.55;1.67;;;3.10;99.90;;;;;;5029046;28;20245;-60
2020/12/10 04:04:49;;;;;;;1.77;0.30;;;3.00;99.90;;;;;;5032141;28;20174;-59
2020/12/10 04:07:15;;;;;;;1.70;0.20;;;3.00;99.90;;;;;;5032727;28;20267;-59
2020/12/10 04:09:40;;;;;;;4.53;1.60;;;3.00;99.90;;;;;;5031030;28;20767;-60
2020/12/10 04:12:06;;;;;;;1.70;0.20;;;3.00;99.90;;;;;;5012392;28;20225;-60
2020/12/10 04:14:31;;;;;;;1.70;0.20;;;3.00;99.90;;;;;;5010649;28;20565;-60
2020/12/10 04:16:57;;;;;;;1.70;0.20;;;3.00;99.90;;;;;;5021846;28;20187;-60
2020/12/10 04:19:23;;;;;;;1.73;0.20;;;3.10;99.90;;;;;;5042398;28;20180;-60
2020/12/10 04:21:49;;;;;;;1.70;0.20;;;3.10;99.90;;;;;;5029494;28;20229;-60
2020/12/10 04:24:14;;;;;;;1.70;0.20;;;3.20;99.90;;;;;;5018993;28;20198;-60
2020/12/10 04:26:40;;;;;;;1.80;0.20;;;3.30;99.90;;;;;;5021550;28;20197;-60
2020/12/10 04:29:05;;;;;;;1.70;0.20;;;3.40;99.90;;;;;;5008937;28;20290;-60
2020/12/10 04:31:31;;;;;;;1.70;0.20;;;3.40;99.90;;;;;;5008667;28;20216;-60
2020/12/10 04:33:56;;;;;;;1.70;0.20;;;3.40;99.90;;;;;;5007957;28;20278;-60
2020/12/10 04:36:22;;;;;;;1.70;0.20;;;3.50;99.90;;;;;;5021665;28;20249;-60
2020/12/10 04:38:47;;;;;;;1.70;0.20;;;3.50;99.90;;;;;;5014837;28;20188;-60
2020/12/10 04:41:13;;;;;;;1.70;0.20;;;3.50;99.90;;;;;;5005410;28;20211;-60
2020/12/10 04:43:39;;;;;;;1.70;0.20;;;3.50;99.90;;;;;;5009115;28;20202;-60
2020/12/10 04:46:05;;;;;;;1.70;0.20;;;3.60;99.90;;;;;;5009664;28;20230;-60
2020/12/10 04:48:33;;;;;;;1.70;0.20;;;3.60;99.90;;;;;;5010706;28;20649;-60
2020/12/10 04:51:01;;;;;;;1.70;0.20;;;3.60;99.90;;;;;;5010959;28;20264;-60
2020/12/10 04:53:28;;;;;;;1.70;0.20;;;3.60;99.90;;;;;;5018033;28;20214;-60
2020/12/10 04:55:55;;;;;;;1.70;0.20;;;3.40;99.90;;;;;;5008817;28;20583;-60
2020/12/10 04:58:21;;;;;;;1.70;0.20;;;3.30;99.90;;;;;;5010144;28;20190;-60
2020/12/10 05:00:47;;;;;;;1.70;0.20;;;3.20;99.90;;;;;;5013118;28;20215;-60
2020/12/10 05:03:15;;;;;;;2.28;0.60;;;3.20;99.90;;;;;;5010146;28;20433;-60
2020/12/10 05:05:41;;;;;;;1.70;0.20;;;3.20;99.90;;;;;;5013854;28;20182;-60
2020/12/10 05:08:06;;;;;;;1.70;0.20;;;3.20;99.90;;;;;;5021260;28;20188;-60
2020/12/10 05:10:45;;;;;;;1.70;0.20;;;3.30;99.90;;;;;;5003315;28;20766;-60
2020/12/10 05:13:15;;;;;;;1.70;0.20;;;3.30;99.90;;;;;;4998444;28;20202;-60
2020/12/10 05:15:41;;;;;;;1.70;0.20;;;3.40;99.90;;;;;;5011469;28;20351;-60
2020/12/10 05:18:15;;;;;;;2.22;1.88;;;3.30;99.90;;;;;;5007913;28;20187;-60
2020/12/10 05:20:55;;;;;;;1.70;0.20;;;3.30;99.90;;;;;;5009819;28;20203;-60
2020/12/10 05:23:31;;;;;;;1.70;0.20;;;3.30;99.90;;;;;;5016093;28;20237;-60
2020/12/10 05:25:57;;;;;;;1.70;0.20;;;3.20;99.90;;;;;;5005367;28;20209;-60
2020/12/10 05:28:25;;;;;;;1.80;0.47;;;3.20;99.90;;;;;;5010197;28;20191;-60
2020/12/10 05:31:18;;;;;;;1.70;0.20;;;3.30;99.90;;;;;;5021349;28;20452;-60
2020/12/10 05:34:16;;;;;;;1.80;0.30;;;3.30;99.90;;;;;;5009851;28;20199;-60
2020/12/10 05:36:44;;;;;;;1.70;0.20;;;3.20;99.90;;;;;;5005654;28;20190;-60
2020/12/10 05:39:11;;;;;;;1.70;0.20;;;3.20;99.90;;;;;;5014033;28;20221;-65
2020/12/10 05:41:43;;;;;;;1.70;0.20;;;3.10;99.90;;;;;;5013585;28;20203;-60
2020/12/10 05:44:22;;;;;;;2.38;2.13;;;3.10;99.90;;;;;;5011393;28;20676;-60
2020/12/10 05:47:06;;;;;;;1.77;0.40;;;3.20;99.90;;;;;;5002784;28;20222;-60
2020/12/10 05:49:31;;;;;;;1.70;0.20;;;3.10;99.90;;;;;;5017055;28;20194;-60
2020/12/10 05:52:03;;;;;;;1.70;0.20;;;3.10;99.90;;;;;;5010799;28;20218;-60
2020/12/10 05:54:33;;;;;;;1.70;0.30;;;3.10;99.90;;;;;;5014924;28;20194;-61
2020/12/10 05:57:00;;;;;;;1.70;0.20;;;3.20;99.90;;;;;;5010335;28;20718;-59
2020/12/10 05:59:31;;;;;;;1.70;0.20;;;3.30;99.90;;;;;;5011118;28;20194;-60
2020/12/10 06:02:01;;;;;;;1.70;0.20;;;3.30;99.90;;;;;;5012578;28;20305;-60
2020/12/10 06:04:27;;;;;;;1.70;0.20;;;3.30;99.90;;;;;;5015617;28;20190;-60
2020/12/10 06:06:57;;;;;;;1.70;0.20;;;3.20;99.90;;;;;;5007839;28;20183;-59
2020/12/10 06:09:23;;;;;;;1.70;0.20;;;3.20;99.90;;;;;;5031130;28;20184;-66
2020/12/10 06:11:49;;;;;;;1.70;0.20;;;3.30;99.90;;;;;;5026469;28;20215;-60
2020/12/10 06:14:14;;;;;;;9.73;5.90;;;3.40;99.90;;;;;;5025162;28;20187;-61
2020/12/10 06:16:41;;;;;;;1.70;0.20;;;3.40;99.90;;;;;;5034500;28;20194;-60
2020/12/10 06:19:10;;;;;;;1.70;0.20;;;3.30;99.90;;;;;;5040828;28;20226;-62
2020/12/10 06:21:43;;;;;;;1.70;0.20;;;3.30;99.90;;;;;;5033399;28;20286;-60
2020/12/10 06:24:24;;;;;;;1.70;0.20;;;3.30;99.90;;;;;;5033545;28;20182;-61
2020/12/10 06:26:50;;;;;;;1.70;0.20;;;3.40;99.90;;;;;;5032296;28;20197;-61
2020/12/10 06:29:30;;;;;;;1.80;0.35;;;3.40;99.90;;;;;;5029598;28;20195;-60
2020/12/10 06:32:16;;;;;;;1.70;0.20;;;3.40;99.90;;;;;;5033074;28;20218;-60
2020/12/10 06:34:55;;;;;;;1.70;0.20;;;3.40;99.90;;;;;;5030666;28;20217;-63
2020/12/10 06:37:23;;;;;;;1.70;0.30;;;3.50;99.90;;;;;;5028345;28;20229;-61
2020/12/10 06:40:03;;;;;;;1.70;0.20;;;3.50;99.90;;;;;;5032158;28;20250;-61
2020/12/10 06:42:48;;;;;;;1.70;0.20;;;3.40;99.90;;;;;;5032619;28;20178;-58
2020/12/10 06:45:23;;;;;;;1.70;0.20;;;3.40;99.90;;;;;;5017866;28;20205;-58
2020/12/10 06:47:49;;;;;;;1.73;0.20;;;3.40;99.90;;;;;;5013748;28;20194;-59
2020/12/10 06:50:22;;;;;;;1.70;0.20;;;3.40;99.90;;;;;;5016348;28;20584;-58
2020/12/10 06:53:07;;;;;;;1.70;0.20;;;3.40;99.90;;;;;;5013839;28;20230;-59
2020/12/10 06:55:32;;;;;;;1.77;0.20;;;3.40;99.90;;;;;;5009507;28;20653;-59
2020/12/10 06:58:13;;;;;;;1.93;0.90;;;3.40;99.90;;;;;;5020330;28;20186;-59
2020/12/10 07:00:46;;;;;;;1.70;0.20;;;3.40;99.90;;;;;;5029943;28;20222;-61
2020/12/10 07:03:22;;;;;;;1.70;0.20;;;3.40;99.90;;;;;;5023733;28;20190;-59
2020/12/10 07:05:48;;;;;;;1.70;0.20;;;3.40;99.90;;;;;;5032599;28;20182;-60
2020/12/10 07:08:16;;;;;;;1.70;0.20;;;3.50;99.90;;;;;;5023480;28;20201;-60
2020/12/10 07:10:50;;;;;;;1.70;0.20;;;3.40;99.90;;;;;;5025737;28;20457;-59
2020/12/10 07:13:28;;;;;;;1.73;0.20;;;3.40;99.90;;;;;;5029886;28;20762;-60
2020/12/10 07:15:54;;;;;;;1.70;0.20;;;3.40;99.90;;;;;;5025119;28;20246;-59
2020/12/10 07:18:20;;;;;;;1.70;0.20;;;3.50;99.90;;;;;;5020560;28;20194;-58
2020/12/10 07:20:45;;;;;;;1.70;0.20;;;3.50;99.90;;;;;;5031868;28;20210;-59
2020/12/10 07:23:11;;;;;;;1.70;0.20;;;3.50;99.90;;;;;;5022519;28;20190;-59
2020/12/10 07:25:36;;;;;;;2.70;1.50;;;3.30;99.90;;;;;;5015689;28;20195;-59
2020/12/10 07:28:02;;;;;;;1.80;0.40;;;3.30;99.90;;;;;;5004606;28;20178;-59
2020/12/10 07:30:30;;;;;;;1.70;0.20;;;3.30;99.90;;;;;;5012185;28;20203;-59
2020/12/10 07:32:56;;;;;;;1.70;0.20;;;3.30;99.90;;;;;;5004361;28;20298;-59
2020/12/10 07:35:33;;;;;;;1.70;0.20;;;3.40;99.90;;;;;;5023241;28;20181;-58
2020/12/10 07:38:09;;;;;;;1.70;0.20;;;3.40;99.90;;;;;;5016939;28;20183;-59
2020/12/10 07:40:35;;;;;;;1.67;0.20;;;3.30;99.90;;;;;;5013007;28;20567;-60
2020/12/10 07:43:05;;;;;;;1.70;0.20;;;3.30;99.90;;;;;;5015025;28;20187;-59
2020/12/10 07:45:31;;;;;;;1.70;0.20;;;3.10;99.90;;;;;;5015665;28;20193;-59
2020/12/10 07:48:00;;;;;;;1.70;0.20;;;3.10;99.90;;;;;;5013944;28;20218;-59
2020/12/10 07:50:27;;;;;;;2.30;1.25;;;3.10;99.90;;;;;;5009732;28;20242;-60
2020/12/10 07:52:54;;;;;;;1.70;0.20;;;3.10;99.90;;;;;;5008622;28;20252;-60
2020/12/10 07:55:24;;;;;;;1.70;0.20;;;3.20;99.90;;;;;;5010711;28;20194;-59
2020/12/10 07:57:58;;;;;;;1.70;0.20;;;3.30;99.90;;;;;;5013080;28;20202;-59
2020/12/10 08:00:27;;;;;;;1.70;0.20;;;3.30;99.90;;;;;;5010918;28;20210;-59
2020/12/10 08:03:21;;;;;;;1.80;0.20;;;3.30;99.90;;;;;;5007873;28;20199;-60
2020/12/10 08:05:58;;;;;;;1.73;0.20;;;3.30;99.90;;;;;;5013117;28;20613;-60
2020/12/10 08:08:37;;;;;;;1.73;0.20;;;3.40;99.90;;;;;;5009986;28;20277;-60
2020/12/10 08:11:11;;;;;;;1.70;0.20;;;3.40;99.90;;;;;;5008035;28;20681;-60
2020/12/10 08:13:37;;;;;;;1.70;0.20;;;3.40;99.90;;;;;;5004783;28;20305;-60
2020/12/10 08:16:08;;;;;;;1.87;0.40;;;3.40;99.90;;;;;;5002413;28;20942;-60
2020/12/10 08:18:34;;;;;;;1.70;0.20;;;3.20;99.90;;;;;;5002942;28;20442;-60
2020/12/10 08:21:04;;;;;;;1.70;0.20;;;3.20;99.90;;;;;;5009019;28;20230;-60
2020/12/10 08:23:45;;;;;;;1.70;0.20;;;3.30;99.90;;;;;;5014781;28;20726;-60
2020/12/10 08:26:14;;;;;;;1.70;0.20;;;3.40;99.90;;;;;;5010850;28;20280;-60
2020/12/10 08:28:51;;;;;;;1.75;0.20;;;3.50;99.90;;;;;;5010993;28;20229;-60
2020/12/10 08:31:21;;;;;;;1.70;0.20;;;3.50;99.90;;;;;;5010835;28;20360;-60
2020/12/10 08:33:47;;;;;;;1.70;0.20;;;3.40;99.90;;;;;;5005453;28;20206;-61
2020/12/10 08:36:23;;;;;;;1.70;0.20;;;3.40;99.90;;;;;;5008339;28;20190;-61
2020/12/10 08:38:53;;;;;;;1.70;0.20;;;3.50;99.90;;;;;;5003940;28;20209;-60
2020/12/10 08:41:28;;;;;;;1.80;0.30;;;3.50;99.90;;;;;;5003826;28;20288;-60
2020/12/10 08:44:01;;;;;;;1.73;0.20;;;3.50;99.90;;;;;;4999376;28;20186;-60
2020/12/10 08:46:28;;;;;;;1.70;0.20;;;3.50;99.90;;;;;;5006985;28;20641;-60
2020/12/10 08:48:55;;;;;;;1.73;0.20;;;3.40;99.90;;;;;;5004818;28;20190;-60
2020/12/10 08:51:21;;;;;;;1.70;0.20;;;3.50;99.90;;;;;;5008338;28;20254;-60
2020/12/10 08:53:52;;;;;;;1.70;0.20;;;3.50;99.90;;;;;;5004026;28;20609;-59
2020/12/10 08:56:22;;;;;;;1.70;0.20;;;3.50;99.90;;;;;;4999936;28;20188;-60
2020/12/10 08:58:48;;;;;;;1.70;0.40;;;3.50;99.90;;;;;;5007211;28;20183;-60
2020/12/10 09:01:14;;;;;;;1.70;0.20;;;3.40;99.90;;;;;;5007436;28;20692;-61
2020/12/10 09:03:40;;;;;;;2.00;1.03;;;3.50;99.90;;;;;;5009171;28;20183;-58
2020/12/10 09:06:05;;;;;;;1.70;0.20;;;3.50;99.90;;;;;;5020841;28;20619;-60
2020/12/10 09:08:31;;;;;;;1.70;0.20;;;3.50;99.90;;;;;;5013916;28;20662;-60
2020/12/10 09:10:56;;;;;;;1.70;0.20;;;3.50;99.90;;;;;;5012443;28;20211;-64
2020/12/10 09:13:24;;;;;;;1.70;0.20;;;3.60;99.90;;;;;;5043916;28;20237;-60
2020/12/10 09:15:51;;;;;;;1.70;0.20;;;3.60;99.90;;;;;;5031744;28;20174;-61
2020/12/10 09:18:16;;;;;;;2.17;0.38;;;3.70;99.90;;;;;;5039141;28;20183;-61
2020/12/10 09:20:42;;;;;;;1.70;0.20;;;3.70;99.90;;;;;;5029956;28;20198;-60
2020/12/10 09:23:11;;;;;;;1.70;0.20;;;3.60;99.90;;;;;;5014082;28;20642;-60
2020/12/10 09:25:37;;;;;;;1.70;0.20;;;3.60;99.90;;;;;;5017710;28;20186;-59
2020/12/10 09:28:04;;;;;;;1.70;0.20;;;3.60;99.90;;;;;;5017009;28;20191;-59
2020/12/10 09:30:30;;;;;;;1.73;0.20;;;3.60;99.90;;;;;;5011105;28;20235;-59
2020/12/10 09:32:55;;;;;;;1.70;0.20;;;3.60;99.90;;;;;;5013186;28;20218;-59
2020/12/10 09:35:21;;;;;;;1.70;0.20;;;3.70;99.90;;;;;;5023072;28;20203;-59
2020/12/10 09:37:46;;;;;;;1.70;0.20;;;3.70;99.90;;;;;;5009543;28;20291;-59
2020/12/10 09:40:13;;;;;;;1.70;0.20;;;3.70;99.90;;;;;;5010956;28;20604;-59
2020/12/10 09:42:44;;;;;;;1.70;0.20;;;3.70;99.90;;;;;;5014518;28;20269;-59
2020/12/10 09:45:11;;;;;;;1.70;0.20;;;3.70;99.90;;;;;;5009416;28;20176;-59
2020/12/10 09:47:36;;;;;;;1.80;0.40;;;3.70;99.90;;;;;;5010507;28;20183;-59
2020/12/10 09:50:04;;;;;;;1.70;0.20;;;3.60;99.90;;;;;;5013424;28;20202;-60
2020/12/10 09:52:31;;;;;;;1.70;0.20;;;3.50;99.90;;;;;;5010185;28;20653;-60
2020/12/10 09:55:03;;;;;;;1.70;0.20;;;3.60;99.90;;;;;;5016098;28;20670;-59
2020/12/10 09:57:30;;;;;;;1.70;0.20;;;3.60;99.90;;;;;;5007427;28;20539;-60
2020/12/10 10:00:01;;;;;;;1.70;0.20;;;3.70;99.90;;;;;;5012747;28;20197;-60
2020/12/10 10:02:26;;;;;;;1.70;0.20;;;3.70;99.90;;;;;;5012842;28;20260;-60
2020/12/10 10:04:52;;;;;;;1.70;0.20;;;3.80;99.90;;;;;;5007735;28;20178;-59
2020/12/10 10:07:18;;;;;;;1.70;0.20;;;3.80;99.90;;;;;;5012487;28;20194;-60
2020/12/10 10:09:44;;;;;;;1.70;0.20;;;3.70;99.90;;;;;;5010723;28;20438;-60
2020/12/10 10:12:10;;;;;;;1.70;0.20;;;3.80;99.90;;;;;;5010956;28;20210;-65
2020/12/10 10:14:37;;;;;;;1.70;0.30;;;3.80;99.90;;;;;;5003808;28;20735;-59
2020/12/10 10:17:09;;;;;;;1.70;0.20;;;3.80;99.90;;;;;;5009503;28;20517;-60
2020/12/10 10:19:35;;;;;;;1.92;0.30;;;3.60;99.90;;;;;;5009927;28;20182;-60
2020/12/10 10:22:02;;;;;;;1.70;0.20;;;3.40;99.90;;;;;;5010801;28;20210;-60
2020/12/10 10:24:29;;;;;;;1.70;0.20;;;3.30;99.90;;;;;;5007463;28;20190;-60
2020/12/10 10:26:54;;;;;;;1.70;0.20;;;3.40;99.90;;;;;;5010460;28;20210;-60
2020/12/10 10:29:21;;;;;;;1.70;0.20;;;3.60;99.90;;;;;;5011702;28;20249;-60
2020/12/10 10:31:48;;;;;;;1.70;0.20;;;3.70;99.90;;;;;;5006846;28;20524;-60
2020/12/10 10:34:14;;;;;;;1.70;0.20;;;3.60;99.90;;;;;;5008762;28;20246;-60
2020/12/10 10:36:39;;;;;;;1.70;0.20;;;3.60;99.90;;;;;;5012894;28;21706;-60
2020/12/10 10:39:05;;;;;;;1.70;0.20;;;3.50;99.90;;;;;;5009107;28;20187;-60
2020/12/10 10:41:30;;;;;;;3.70;1.00;;;3.50;99.90;;;;;;5010482;28;20203;-60
2020/12/10 10:43:56;;;;;;;1.80;0.30;;;3.40;99.90;;;;;;5012019;28;20205;-60
2020/12/10 10:46:21;;;;;;;4.63;2.27;;;3.30;99.90;;;;;;5012786;28;20190;-59
2020/12/10 10:48:47;;;;;;;1.70;0.20;;;3.30;99.90;;;;;;5008116;28;20764;-59
2020/12/10 10:51:12;;;;;;;2.87;0.83;;;3.30;99.90;;;;;;5009208;28;20557;-59
2020/12/10 10:53:40;;;;;;;2.30;1.10;;;3.20;99.90;;;;;;5011859;28;20238;-59
2020/12/10 10:56:05;;;;;;;2.10;0.50;;;3.20;99.90;;;;;;5024783;28;20248;-60
2020/12/10 10:58:31;;;;;;;1.70;0.30;;;3.20;99.90;;;;;;5013677;28;20186;-59
2020/12/10 11:00:57;;;;;;;2.10;1.00;;;3.30;99.90;;;;;;5009678;28;20457;-59
2020/12/10 11:03:22;;;;;;;2.23;0.80;;;3.30;99.90;;;;;;5011423;28;20183;-60
2020/12/10 11:05:48;;;;;;;1.70;0.20;;;3.30;99.90;;;;;;5012540;28;20174;-59
2020/12/10 11:08:14;;;;;;;1.70;0.20;;;3.30;99.90;;;;;;5008958;28;20270;-59
2020/12/10 11:10:39;;;;;;;1.70;0.20;;;3.50;99.90;;;;;;5013632;28;20234;-60
2020/12/10 11:13:05;;;;;;;1.70;0.20;;;3.50;99.90;;;;;;5011102;28;20293;-60
2020/12/10 11:15:31;;;;;;;2.33;1.23;;;3.50;99.90;;;;;;5010070;28;20546;-60
2020/12/10 11:17:57;;;;;;;1.80;0.30;;;3.50;99.90;;;;;;5008788;28;20283;-60
2020/12/10 11:20:22;;;;;;;1.70;0.30;;;3.40;99.90;;;;;;5011855;28;20234;-59
2020/12/10 11:22:48;;;;;;;1.70;0.20;;;3.30;99.90;;;;;;5008478;28;20453;-59
2020/12/10 11:25:13;;;;;;;1.70;0.20;;;3.40;99.90;;;;;;5008448;28;20186;-60
2020/12/10 11:27:39;;;;;;;2.20;0.53;;;3.50;99.90;;;;;;5006671;28;20194;-60
2020/12/10 11:30:05;;;;;;;1.70;0.20;;;3.60;99.90;;;;;;5009415;28;20195;-60
2020/12/10 11:32:30;;;;;;;5.50;1.80;;;3.40;99.90;;;;;;5000058;28;20677;-59
2020/12/10 11:34:56;;;;;;;1.70;0.20;;;3.40;99.90;;;;;;5010471;28;20518;-60
2020/12/10 11:37:21;;;;;;;2.00;0.73;;;3.40;99.90;;;;;;5008323;28;20186;-60
2020/12/10 11:39:47;;;;;;;3.03;1.80;;;3.50;99.90;;;;;;5009424;28;20185;-62
2020/12/10 11:42:12;;;;;;;2.00;0.50;;;3.60;99.90;;;;;;5006278;28;20203;-59
2020/12/10 11:44:41;;;;;;;2.10;0.73;;;3.40;99.90;;;;;;5005196;28;20272;-62
2020/12/10 11:47:07;;;;;;;1.70;0.20;;;3.40;99.90;;;;;;5010033;28;20205;-60
2020/12/10 11:49:33;;;;;;;5.13;1.53;;;3.40;99.90;;;;;;5022182;28;20214;-62
2020/12/10 11:51:58;;;;;;;1.70;0.20;;;3.40;99.90;;;;;;5026894;28;20478;-65
2020/12/10 11:54:24;;;;;;;2.00;0.73;;;3.40;99.90;;;;;;5020570;28;20191;-64
2020/12/10 11:56:58;;;;;;;1.70;0.20;;;3.50;99.90;;;;;;5026006;28;20213;-62
2020/12/10 11:59:24;;;;;;;1.73;0.20;;;3.40;99.90;;;;;;5024400;28;20186;-62
2020/12/10 12:01:50;;;;;;;1.70;0.20;;;3.40;99.90;;;;;;5027303;28;20217;-61
2020/12/10 12:04:16;;;;;;;6.38;3.60;;;3.60;99.90;;;;;;5027575;28;20175;-66
2020/12/10 12:06:41;;;;;;;1.70;0.20;;;3.40;99.90;;;;;;5029703;28;20237;-60
2020/12/10 12:09:07;;;;;;;1.70;0.20;;;3.40;99.90;;;;;;5032162;28;20201;-63
2020/12/10 12:11:33;;;;;;;1.70;0.20;;;3.40;99.90;;;;;;5035902;28;20239;-65
2020/12/10 12:13:58;;;;;;;3.27;1.70;;;3.50;99.90;;;;;;5011663;28;20210;-62
2020/12/10 12:16:24;;;;;;;1.70;0.20;;;3.40;99.90;;;;;;5008561;28;20187;-59
2020/12/10 12:18:50;;;;;;;1.70;0.20;;;3.50;99.90;;;;;;5011049;28;20182;-60
2020/12/10 12:21:22;;;;;;;1.70;0.20;;;3.50;99.90;;;;;;5010927;28;20285;-59
2020/12/10 12:23:48;;;;;;;1.70;0.20;;;3.60;99.90;;;;;;5001884;28;20183;-58
2020/12/10 12:26:14;;;;;;;1.70;0.20;;;3.70;99.90;;;;;;5005560;28;20202;-59
2020/12/10 12:28:40;;;;;;;1.70;0.20;;;3.70;99.90;;;;;;5009317;28;20194;-58
2020/12/10 12:31:05;;;;;;;1.70;0.20;;;3.80;99.90;;;;;;5010556;28;20210;-58
2020/12/10 12:33:31;;;;;;;1.70;0.20;;;3.80;99.90;;;;;;5008724;28;20206;-59
2020/12/10 12:35:56;;;;;;;3.13;1.73;;;3.90;99.90;;;;;;5007754;28;20253;-59
2020/12/10 12:38:22;;;;;;;1.80;0.40;;;3.80;99.90;;;;;;5004883;28;20178;-59
2020/12/10 12:40:48;;;;;;;7.10;1.60;;;3.70;99.90;;;;;;5015593;28;20511;-60
2020/12/10 12:43:14;;;;;;;1.70;0.20;;;3.60;99.90;;;;;;5011078;28;20179;-58
2020/12/10 12:45:39;;;;;;;1.70;0.20;;;3.60;99.90;;;;;;5007394;28;20539;-58
2020/12/10 12:48:06;;;;;;;1.70;0.20;;;3.60;99.90;;;;;;5015898;28;20183;-60
2020/12/10 12:50:31;;;;;;;5.97;2.42;;;3.70;99.90;;;;;;5008648;28;20214;-60
2020/12/10 12:52:57;;;;;;;1.70;0.20;;;3.70;99.90;;;;;;5005965;28;20697;-60
2020/12/10 12:55:23;;;;;;;6.03;3.10;;;3.70;99.90;;;;;;5016341;28;20179;-60
2020/12/10 12:57:48;;;;;;;4.67;3.00;;;3.40;99.90;;;;;;5019001;28;20505;-61
2020/12/10 13:00:14;;;;;;;1.70;0.20;;;3.30;99.90;;;;;;5021792;28;20210;-61
2020/12/10 13:02:41;;;;;;;2.10;1.07;;;3.40;99.90;;;;;;5021279;28;20232;-60